Skip Navigation LinksHome page > Tools > METAR decoder Skip Navigation Links

METAR decoder

Settings

METAR

Chicago O'Hare Intl, Chicago

For information only: do not use for flight planning or navigation.
Latest weather
Observation time Wednesday, September 3, 2014 1:51 AM CDT
Local time Wednesday, September 3, 2014 1:57 AM CDT
Flight conditions Visual Meteorological Conditions
Winds
Wind direction West (270°)
Wind speed 6 mph
Visibility 10 mi.
Sky condition
Ceiling unlimited
Cloud layer few clouds 4,900 ft.
Temperature 67°F
Dewpoint 59°F
Altimeter 29.98 in.Hg
Derived measurements
Relative humidity 76%
Density altitude 1352 ft.
Sea-level pressure 29.96 in.Hg
Remarks
Automated weather observing station with precipitation discriminator.
METAR KORD 030651Z 27005KT 10SM FEW049 19/15 A2998 RMK AO2 SLP146 T01940150

InnerDrive.Weather 4.0.5356.0 Release CLR 4.0.30319.34014
Copyright ©2014 Inner Drive Technology. All rights reserved. Portions Copyright ©1986-2014 David Braverman.

Find weather

Site navigation


Skip Navigation Links

Place info

Page info

PayPal - The safer, easier way to pay online!

Return home.

Copyright ©2014 Inner Drive Technology. Purveyors of fine, hand-crafted computer software. Page printed 2014-09-03T06:57:48 UTC.